createdAt,value
2022-07-26T00:00:05.799Z,16.56
2022-07-26T00:02:35.153Z,16.54
2022-07-26T00:05:03.173Z,16.41
2022-07-26T00:07:36.422Z,16.44
2022-07-26T00:10:05.847Z,16.45
2022-07-26T00:12:35.997Z,16.49
2022-07-26T00:15:05.389Z,16.36
2022-07-26T00:17:35.020Z,16.30
2022-07-26T00:20:04.117Z,16.37
2022-07-26T00:22:31.996Z,16.35
2022-07-26T00:24:59.871Z,16.29
2022-07-26T00:27:27.713Z,16.25
2022-07-26T00:29:55.380Z,16.18
2022-07-26T00:32:22.974Z,16.11
2022-07-26T00:34:53.047Z,16.10
2022-07-26T00:37:21.215Z,15.99
2022-07-26T00:39:49.030Z,16.11
2022-07-26T00:42:17.092Z,16.04
2022-07-26T00:44:46.854Z,15.99
2022-07-26T00:47:15.385Z,16.03
2022-07-26T00:49:43.783Z,16.04
2022-07-26T00:52:13.420Z,15.99
2022-07-26T00:54:43.173Z,15.99
2022-07-26T00:57:15.205Z,15.95
2022-07-26T00:59:43.565Z,15.98
2022-07-26T01:02:11.457Z,15.92
2022-07-26T01:04:41.496Z,16.01
2022-07-26T01:07:15.388Z,16.03
2022-07-26T01:09:45.136Z,16.01
2022-07-26T01:12:13.099Z,16.00
2022-07-26T01:14:42.713Z,15.89
2022-07-26T01:17:10.927Z,15.79
2022-07-26T01:19:43.253Z,15.83
2022-07-26T01:22:14.590Z,15.85
2022-07-26T01:24:43.190Z,15.85
2022-07-26T01:27:13.788Z,15.79
2022-07-26T01:29:42.236Z,15.57
2022-07-26T01:32:11.113Z,15.64
2022-07-26T01:34:41.482Z,15.59
2022-07-26T01:37:09.569Z,15.64
2022-07-26T01:39:39.356Z,15.56
2022-07-26T01:42:07.309Z,15.39
2022-07-26T01:44:35.017Z,15.38
2022-07-26T01:47:02.764Z,15.34
2022-07-26T01:49:33.312Z,15.42
2022-07-26T01:52:01.222Z,15.40
2022-07-26T01:54:29.279Z,15.43
2022-07-26T01:56:58.693Z,15.44
2022-07-26T01:59:26.574Z,15.40
2022-07-26T02:01:54.610Z,15.48
2022-07-26T02:04:22.305Z,15.48
2022-07-26T02:06:49.929Z,15.54
2022-07-26T02:09:17.749Z,15.44
2022-07-26T02:11:47.177Z,15.47
2022-07-26T02:14:25.854Z,15.42
2022-07-26T02:16:55.844Z,15.41
2022-07-26T02:19:23.635Z,15.48
2022-07-26T02:21:51.230Z,15.28
2022-07-26T02:24:18.945Z,15.21
2022-07-26T02:26:46.659Z,15.20
2022-07-26T02:29:14.379Z,15.24
2022-07-26T02:31:48.398Z,15.30
2022-07-26T02:34:17.105Z,15.32
2022-07-26T02:36:45.408Z,15.25
2022-07-26T02:39:13.875Z,15.24
2022-07-26T02:41:41.496Z,15.19
2022-07-26T02:44:09.669Z,15.23
2022-07-26T02:46:37.740Z,15.27
2022-07-26T02:49:07.201Z,15.33
2022-07-26T02:51:35.047Z,15.29
2022-07-26T02:54:02.700Z,15.35
2022-07-26T02:56:30.382Z,15.40
2022-07-26T02:58:58.171Z,15.41
2022-07-26T03:01:26.063Z,15.53
2022-07-26T03:03:53.755Z,15.64
2022-07-26T03:06:23.129Z,15.77
2022-07-26T03:08:50.784Z,15.79
2022-07-26T03:11:18.374Z,15.86
2022-07-26T03:13:46.143Z,15.94
2022-07-26T03:16:13.998Z,16.00
2022-07-26T03:18:41.710Z,16.02
2022-07-26T03:21:09.457Z,16.04
2022-07-26T03:23:38.565Z,16.25
2022-07-26T03:26:06.494Z,16.38
2022-07-26T03:28:34.783Z,16.48
2022-07-26T03:31:02.898Z,16.53
2022-07-26T03:33:30.644Z,16.74
2022-07-26T03:35:58.409Z,16.87
2022-07-26T03:38:26.716Z,16.99
2022-07-26T03:40:55.846Z,17.06
2022-07-26T03:43:23.780Z,17.16
2022-07-26T03:45:54.570Z,17.21
2022-07-26T03:48:22.580Z,17.30
2022-07-26T03:50:50.543Z,17.38
2022-07-26T03:53:18.205Z,17.44
2022-07-26T03:55:45.789Z,17.58
2022-07-26T03:58:15.084Z,17.63
2022-07-26T04:00:42.702Z,17.78
2022-07-26T04:03:10.342Z,17.90
2022-07-26T04:05:38.296Z,17.98
2022-07-26T04:08:06.105Z,18.06
2022-07-26T04:10:33.728Z,18.10
2022-07-26T04:13:01.430Z,18.24
2022-07-26T04:15:30.497Z,18.31
2022-07-26T04:17:58.141Z,18.48
2022-07-26T04:20:25.955Z,18.60
2022-07-26T04:22:53.592Z,18.80
2022-07-26T04:25:21.799Z,18.96
2022-07-26T04:27:49.583Z,19.11
2022-07-26T04:30:18.368Z,19.22
2022-07-26T04:32:47.467Z,19.39
2022-07-26T04:35:15.745Z,19.53
2022-07-26T04:37:44.926Z,19.74
2022-07-26T04:40:21.232Z,19.94
2022-07-26T04:42:49.784Z,20.12
2022-07-26T04:45:18.339Z,20.37
2022-07-26T04:47:49.159Z,20.54
2022-07-26T04:50:17.247Z,20.67
2022-07-26T04:52:44.973Z,20.87
2022-07-26T04:55:13.325Z,21.03
2022-07-26T04:57:41.101Z,21.18
2022-07-26T05:00:27.493Z,21.30
2022-07-26T05:02:58.598Z,21.43
2022-07-26T05:05:27.139Z,21.56
2022-07-26T05:07:56.647Z,21.72
2022-07-26T05:10:29.508Z,21.79
2022-07-26T05:12:57.179Z,21.83
2022-07-26T05:15:25.169Z,21.91
2022-07-26T05:18:06.776Z,22.11
2022-07-26T05:20:35.853Z,22.27
2022-07-26T05:23:04.493Z,22.41
2022-07-26T05:25:32.176Z,22.53
2022-07-26T05:27:59.824Z,22.66
2022-07-26T05:30:27.718Z,22.74
2022-07-26T05:32:55.394Z,22.88
2022-07-26T05:35:24.678Z,23.03
2022-07-26T05:37:52.453Z,22.89
2022-07-26T05:40:20.342Z,23.01
2022-07-26T05:42:48.162Z,23.12
2022-07-26T05:45:16.040Z,23.26
2022-07-26T05:47:43.856Z,23.42
2022-07-26T05:50:11.580Z,23.54
2022-07-26T05:52:40.743Z,23.67
2022-07-26T05:55:09.538Z,23.79
2022-07-26T05:57:37.184Z,23.97
2022-07-26T06:00:06.784Z,24.13
2022-07-26T06:02:35.739Z,24.24
2022-07-26T06:05:03.907Z,24.15
2022-07-26T06:07:31.753Z,24.16
2022-07-26T06:10:00.951Z,24.24
2022-07-26T06:12:28.836Z,24.43
2022-07-26T06:14:56.589Z,24.53
2022-07-26T06:17:24.303Z,24.64
2022-07-26T06:19:52.021Z,24.75
2022-07-26T06:22:20.088Z,24.89
2022-07-26T06:24:47.773Z,25.01
2022-07-26T06:27:16.824Z,25.11
2022-07-26T06:29:44.707Z,25.22
2022-07-26T06:32:12.442Z,25.19
2022-07-26T06:34:40.117Z,25.32
2022-07-26T06:37:07.825Z,25.43
2022-07-26T06:39:35.563Z,25.50
2022-07-26T06:42:03.310Z,25.57
2022-07-26T06:44:32.671Z,25.64
2022-07-26T06:47:00.548Z,25.80
2022-07-26T06:49:28.362Z,25.89
2022-07-26T06:51:56.214Z,25.90
2022-07-26T06:54:23.914Z,25.94
2022-07-26T06:56:51.535Z,26.05
2022-07-26T06:59:19.302Z,26.14
2022-07-26T07:01:51.456Z,26.17
2022-07-26T07:04:28.513Z,26.34
2022-07-26T07:06:56.752Z,26.41
2022-07-26T07:09:25.577Z,26.40
2022-07-26T07:11:57.428Z,26.48
2022-07-26T07:14:28.484Z,26.65
2022-07-26T07:16:57.970Z,26.71
2022-07-26T07:19:26.040Z,26.20
2022-07-26T07:21:56.202Z,25.95
2022-07-26T07:24:24.842Z,26.16
2022-07-26T07:26:52.510Z,26.30
2022-07-26T07:29:20.263Z,26.58
2022-07-26T07:31:49.674Z,26.76
2022-07-26T07:34:19.513Z,27.05
2022-07-26T07:36:47.486Z,27.25
2022-07-26T07:39:17.521Z,27.30
2022-07-26T07:41:47.378Z,27.24
2022-07-26T07:44:15.299Z,27.09
2022-07-26T07:46:43.956Z,27.28
2022-07-26T07:49:12.141Z,27.34
2022-07-26T07:51:42.083Z,27.55
2022-07-26T07:54:09.819Z,27.52
2022-07-26T07:56:37.790Z,27.38
2022-07-26T07:59:08.172Z,27.26
2022-07-26T08:01:40.636Z,27.57
2022-07-26T08:04:09.516Z,27.62
2022-07-26T08:06:37.384Z,27.60
2022-07-26T08:09:13.188Z,27.57
2022-07-26T08:11:43.755Z,27.65
2022-07-26T08:14:12.033Z,27.80
2022-07-26T08:16:41.126Z,27.93
2022-07-26T08:19:09.319Z,28.01
2022-07-26T08:21:37.403Z,28.20
2022-07-26T08:24:05.912Z,28.37
2022-07-26T08:26:36.010Z,28.45
2022-07-26T08:29:04.228Z,28.52
2022-07-26T08:31:32.065Z,28.23
2022-07-26T08:33:59.815Z,28.18
2022-07-26T08:36:32.323Z,28.37
2022-07-26T08:39:00.554Z,28.56
2022-07-26T08:41:32.747Z,28.51
2022-07-26T08:44:09.775Z,28.45
2022-07-26T08:46:39.308Z,28.46
2022-07-26T08:49:09.088Z,28.43
2022-07-26T08:51:39.020Z,28.08
2022-07-26T08:54:07.370Z,27.72
2022-07-26T08:56:36.221Z,27.65
2022-07-26T08:59:05.520Z,27.58
2022-07-26T09:01:35.708Z,27.90
2022-07-26T09:04:30.989Z,28.10
2022-07-26T09:07:01.893Z,28.39
2022-07-26T09:09:30.467Z,27.97
2022-07-26T09:11:58.399Z,27.87
2022-07-26T09:14:36.869Z,27.95
2022-07-26T09:17:06.134Z,28.24
2022-07-26T09:19:34.265Z,28.18
2022-07-26T09:22:10.382Z,28.09
2022-07-26T09:24:40.612Z,28.33
2022-07-26T09:27:11.086Z,28.60
2022-07-26T09:29:51.217Z,28.79
2022-07-26T09:32:23.951Z,28.66
2022-07-26T09:34:53.596Z,28.56
2022-07-26T09:37:37.362Z,28.11
2022-07-26T09:40:08.224Z,28.16
2022-07-26T09:42:36.329Z,28.49
2022-07-26T09:45:16.098Z,28.63
2022-07-26T09:47:46.307Z,28.68
2022-07-26T09:50:16.285Z,28.81
2022-07-26T09:53:01.258Z,28.99
2022-07-26T09:55:39.339Z,29.14
2022-07-26T09:58:13.213Z,29.19
2022-07-26T10:00:41.457Z,29.31
2022-07-26T10:03:10.808Z,29.49
2022-07-26T10:05:41.216Z,29.47
2022-07-26T10:08:09.768Z,29.25
2022-07-26T10:10:43.744Z,29.33
2022-07-26T10:13:13.303Z,29.31
2022-07-26T10:15:43.313Z,29.17
2022-07-26T10:18:45.071Z,29.37
2022-07-26T10:21:21.923Z,29.64
2022-07-26T10:23:50.499Z,29.65
2022-07-26T10:26:38.341Z,29.56
2022-07-26T10:29:26.449Z,29.04
2022-07-26T10:32:14.353Z,28.63
2022-07-26T10:34:43.561Z,28.40
2022-07-26T10:37:21.498Z,28.57
2022-07-26T10:39:49.313Z,28.91
2022-07-26T10:42:17.136Z,29.16
2022-07-26T10:44:44.846Z,29.52
2022-07-26T10:47:17.297Z,29.91
2022-07-26T10:49:58.034Z,30.09
2022-07-26T10:52:27.717Z,30.21
2022-07-26T10:55:07.840Z,29.96
2022-07-26T10:57:37.787Z,29.67
2022-07-26T11:00:19.239Z,29.33
2022-07-26T11:02:55.843Z,29.03
2022-07-26T11:05:29.970Z,29.06
2022-07-26T11:08:04.797Z,28.70
2022-07-26T11:10:37.914Z,28.56
2022-07-26T11:13:12.922Z,28.49
2022-07-26T11:15:43.434Z,28.35
2022-07-26T11:18:30.196Z,28.42
2022-07-26T11:21:12.089Z,28.38
2022-07-26T11:23:41.976Z,28.54
2022-07-26T11:26:15.227Z,28.60
2022-07-26T11:28:52.896Z,28.55
2022-07-26T11:31:49.527Z,28.38
2022-07-26T11:34:17.649Z,28.33
2022-07-26T11:36:47.335Z,28.23
2022-07-26T11:39:20.990Z,28.23
2022-07-26T11:41:50.181Z,28.18
2022-07-26T11:44:19.563Z,28.10
2022-07-26T11:46:48.071Z,28.12
2022-07-26T11:49:18.423Z,27.93
2022-07-26T11:51:52.534Z,28.12
2022-07-26T11:54:20.841Z,28.36
2022-07-26T11:56:53.808Z,28.41
2022-07-26T11:59:22.504Z,28.41
2022-07-26T12:01:50.852Z,28.41
2022-07-26T12:04:20.862Z,28.33
2022-07-26T12:06:50.959Z,28.55
2022-07-26T12:09:33.568Z,28.91
2022-07-26T12:12:04.450Z,29.27
2022-07-26T12:14:34.018Z,29.55
2022-07-26T12:17:11.898Z,29.60
2022-07-26T12:19:41.846Z,29.82
2022-07-26T12:22:13.524Z,30.15
2022-07-26T12:24:46.714Z,30.23
2022-07-26T12:27:16.652Z,30.25
2022-07-26T12:29:46.268Z,30.37
2022-07-26T12:32:16.816Z,30.37
2022-07-26T12:34:55.988Z,30.35
2022-07-26T12:37:39.487Z,30.20
2022-07-26T12:40:10.106Z,30.12
2022-07-26T12:42:40.588Z,29.74
2022-07-26T12:45:10.611Z,29.87
2022-07-26T12:47:39.471Z,29.91
2022-07-26T12:50:09.003Z,29.90
2022-07-26T12:52:39.117Z,29.99
2022-07-26T12:55:09.397Z,29.89
2022-07-26T12:57:38.807Z,30.15
2022-07-26T13:00:16.146Z,30.25
2022-07-26T13:02:44.640Z,30.14
2022-07-26T13:05:13.541Z,30.18
2022-07-26T13:07:43.945Z,30.17
2022-07-26T13:13:00.826Z,29.53
2022-07-26T13:15:36.138Z,29.51
2022-07-26T13:18:07.515Z,29.64
2022-07-26T13:20:37.415Z,29.67
2022-07-26T13:23:07.364Z,29.73
2022-07-26T13:25:40.031Z,29.70
2022-07-26T13:28:08.977Z,29.41
2022-07-26T13:30:37.787Z,29.13
2022-07-26T13:33:05.623Z,29.33
2022-07-26T13:35:35.208Z,29.44
2022-07-26T13:38:02.855Z,29.48
2022-07-26T13:40:32.254Z,29.43
2022-07-26T13:43:00.680Z,29.26
2022-07-26T13:45:29.453Z,29.12
2022-07-26T13:47:59.248Z,28.89
2022-07-26T13:50:27.571Z,28.88
2022-07-26T13:52:56.128Z,28.73
2022-07-26T13:55:24.454Z,28.79
2022-07-26T13:57:56.975Z,28.88
2022-07-26T14:00:26.250Z,28.91
2022-07-26T14:02:55.128Z,28.83
2022-07-26T14:05:23.603Z,28.83
2022-07-26T14:07:54.235Z,28.68
2022-07-26T14:10:22.837Z,28.55
2022-07-26T14:12:55.988Z,28.46
2022-07-26T14:15:24.057Z,28.57
2022-07-26T14:18:00.295Z,28.57
2022-07-26T14:20:31.175Z,28.54
2022-07-26T14:23:00.188Z,28.67
2022-07-26T14:25:32.092Z,28.69
2022-07-26T14:28:03.056Z,28.68
2022-07-26T14:30:30.868Z,28.82
2022-07-26T14:32:58.691Z,28.82
2022-07-26T14:35:29.973Z,28.88
2022-07-26T14:37:57.834Z,28.78
2022-07-26T14:40:28.366Z,28.81
2022-07-26T14:42:56.449Z,28.83
2022-07-26T14:45:25.809Z,28.82
2022-07-26T14:47:53.582Z,28.72
2022-07-26T14:50:22.015Z,28.79
2022-07-26T14:52:50.282Z,28.65
2022-07-26T14:55:23.141Z,28.65
2022-07-26T14:57:53.380Z,28.55
2022-07-26T15:00:21.137Z,28.53
2022-07-26T15:02:51.002Z,28.51
2022-07-26T15:05:18.905Z,28.54
2022-07-26T15:07:47.075Z,28.46
2022-07-26T15:10:16.129Z,28.42
2022-07-26T15:12:45.323Z,28.43
2022-07-26T15:15:12.992Z,28.33
2022-07-26T15:17:46.937Z,28.24
2022-07-26T15:20:24.245Z,28.09
2022-07-26T15:22:54.036Z,28.06
2022-07-26T15:25:23.440Z,27.87
2022-07-26T15:27:51.289Z,28.01
2022-07-26T15:30:22.654Z,28.01
2022-07-26T15:32:55.919Z,28.04
2022-07-26T15:35:25.630Z,27.98
2022-07-26T15:37:54.529Z,28.06
2022-07-26T15:40:22.277Z,27.92
2022-07-26T15:42:50.256Z,27.82
2022-07-26T15:45:18.804Z,27.98
2022-07-26T15:48:01.083Z,27.93
2022-07-26T15:50:33.775Z,27.90
2022-07-26T15:53:01.734Z,27.74
2022-07-26T15:55:29.506Z,27.72
2022-07-26T15:58:00.763Z,27.76
2022-07-26T16:00:28.629Z,27.64
2022-07-26T16:02:56.377Z,27.55
2022-07-26T16:05:25.210Z,27.43
2022-07-26T16:07:56.112Z,27.35
2022-07-26T16:10:24.137Z,27.26
2022-07-26T16:12:52.069Z,27.11
2022-07-26T16:15:24.654Z,27.08
2022-07-26T16:17:53.065Z,26.94
2022-07-26T16:20:20.824Z,26.88
2022-07-26T16:22:49.529Z,26.92
2022-07-26T16:25:19.327Z,26.81
2022-07-26T16:27:48.212Z,26.73
2022-07-26T16:30:16.696Z,26.76
2022-07-26T16:32:44.596Z,26.77
2022-07-26T16:35:13.459Z,26.68
2022-07-26T16:37:41.090Z,26.60
2022-07-26T16:40:09.838Z,26.43
2022-07-26T16:42:38.985Z,26.27
2022-07-26T16:45:08.385Z,26.27
2022-07-26T16:47:37.563Z,26.04
2022-07-26T16:50:06.076Z,26.01
2022-07-26T16:52:34.082Z,25.96
2022-07-26T16:55:02.844Z,25.88
2022-07-26T16:57:31.016Z,25.75
2022-07-26T17:00:00.072Z,25.73
2022-07-26T17:02:28.118Z,25.60
2022-07-26T17:04:55.834Z,25.49
2022-07-26T17:07:25.943Z,25.38
2022-07-26T17:09:54.431Z,25.24
2022-07-26T17:12:23.071Z,25.20
2022-07-26T17:14:51.270Z,25.22
2022-07-26T17:17:20.572Z,25.09
2022-07-26T17:19:50.280Z,25.05
2022-07-26T17:22:18.589Z,24.98
2022-07-26T17:24:46.922Z,24.90
2022-07-26T17:27:17.789Z,24.79
2022-07-26T17:29:45.485Z,24.65
2022-07-26T17:32:13.352Z,24.53
2022-07-26T17:34:44.898Z,24.52
2022-07-26T17:37:13.055Z,24.43
2022-07-26T17:39:51.588Z,24.28
2022-07-26T17:42:25.778Z,24.29
2022-07-26T17:44:53.817Z,24.24
2022-07-26T17:47:28.044Z,24.20
2022-07-26T17:52:49.410Z,24.03
2022-07-26T17:55:18.506Z,23.89
2022-07-26T17:57:48.001Z,23.80
2022-07-26T18:00:18.528Z,23.68
2022-07-26T18:02:46.530Z,23.57
2022-07-26T18:05:16.822Z,23.40
2022-07-26T18:07:44.792Z,23.32
2022-07-26T18:10:13.186Z,23.27
2022-07-26T18:12:42.465Z,23.13
2022-07-26T18:15:11.783Z,22.98
2022-07-26T18:17:40.235Z,22.79
2022-07-26T18:20:09.602Z,22.63
2022-07-26T18:22:40.116Z,22.56
2022-07-26T18:25:08.452Z,22.35
2022-07-26T18:27:38.029Z,22.21
2022-07-26T18:30:07.104Z,22.11
2022-07-26T18:32:34.935Z,21.98
2022-07-26T18:35:03.632Z,21.97
2022-07-26T18:37:31.570Z,21.96
2022-07-26T18:40:00.842Z,21.88
2022-07-26T18:42:28.448Z,21.75
2022-07-26T18:44:56.791Z,21.67
2022-07-26T18:47:24.456Z,21.58
2022-07-26T18:49:52.179Z,21.44
2022-07-26T18:52:32.096Z,21.40
2022-07-26T18:55:04.723Z,21.18
2022-07-26T18:57:32.805Z,21.17
2022-07-26T19:00:00.519Z,21.06
2022-07-26T19:02:28.237Z,21.07
2022-07-26T19:04:56.072Z,21.00
2022-07-26T19:07:23.836Z,21.04
2022-07-26T19:09:56.503Z,21.05
2022-07-26T19:12:29.318Z,21.02
2022-07-26T19:14:56.987Z,21.02
2022-07-26T19:17:25.619Z,20.96
2022-07-26T19:19:54.817Z,20.92
2022-07-26T19:22:24.788Z,20.78
2022-07-26T19:24:52.905Z,20.75
2022-07-26T19:27:21.185Z,20.68
2022-07-26T19:29:50.377Z,20.67
2022-07-26T19:32:18.140Z,20.54
2022-07-26T19:34:46.113Z,20.56
2022-07-26T19:37:15.235Z,20.51
2022-07-26T19:39:43.426Z,20.41
2022-07-26T19:42:11.210Z,20.44
2022-07-26T19:44:41.907Z,20.42
2022-07-26T19:47:11.250Z,20.40
2022-07-26T19:49:39.073Z,20.33
2022-07-26T19:52:11.540Z,20.30
2022-07-26T19:54:40.486Z,20.32
2022-07-26T19:57:08.517Z,20.27
2022-07-26T19:59:37.218Z,20.19
2022-07-26T20:02:05.160Z,20.23
2022-07-26T20:04:34.312Z,20.25
2022-07-26T20:07:02.783Z,20.22
2022-07-26T20:09:31.735Z,20.24
2022-07-26T20:12:00.087Z,20.17
2022-07-26T20:14:28.422Z,20.10
2022-07-26T20:16:56.575Z,20.01
2022-07-26T20:19:27.821Z,19.98
2022-07-26T20:21:57.440Z,19.89
2022-07-26T20:24:25.176Z,19.75
2022-07-26T20:26:53.146Z,19.68
2022-07-26T20:29:21.047Z,19.65
2022-07-26T20:31:49.100Z,19.49
2022-07-26T20:34:19.164Z,19.33
2022-07-26T20:36:49.311Z,19.29
2022-07-26T20:39:18.744Z,19.30
2022-07-26T20:41:46.471Z,19.29
2022-07-26T20:44:14.896Z,19.26
2022-07-26T20:46:42.543Z,19.25
2022-07-26T20:49:14.277Z,19.24
2022-07-26T20:51:44.613Z,19.21
2022-07-26T20:54:12.457Z,19.28
2022-07-26T20:56:42.107Z,19.39
2022-07-26T20:59:11.008Z,19.36
2022-07-26T21:01:38.931Z,19.39
2022-07-26T21:04:06.790Z,19.50
2022-07-26T21:06:34.907Z,19.38
2022-07-26T21:09:09.673Z,19.36
2022-07-26T21:11:39.275Z,19.17
2022-07-26T21:14:09.174Z,19.05
2022-07-26T21:16:37.771Z,18.99
2022-07-26T21:19:05.720Z,19.13
2022-07-26T21:21:33.931Z,19.18
2022-07-26T21:24:01.675Z,19.23
2022-07-26T21:26:29.621Z,19.23
2022-07-26T21:28:57.456Z,19.21
2022-07-26T21:31:26.789Z,19.12
2022-07-26T21:33:54.655Z,19.17
2022-07-26T21:36:22.813Z,19.14
2022-07-26T21:38:50.487Z,19.13
2022-07-26T21:41:19.314Z,19.06
2022-07-26T21:43:47.142Z,18.97
2022-07-26T21:46:14.986Z,18.85
2022-07-26T21:48:44.561Z,18.78
2022-07-26T21:51:12.872Z,18.66
2022-07-26T21:53:40.493Z,18.58
2022-07-26T21:56:08.518Z,18.57
2022-07-26T21:58:37.295Z,18.51
2022-07-26T22:01:06.996Z,18.53
2022-07-26T22:03:36.600Z,18.45
2022-07-26T22:06:07.056Z,18.41
2022-07-26T22:08:37.849Z,18.23
2022-07-26T22:11:06.109Z,18.25
2022-07-26T22:13:33.921Z,18.31
2022-07-26T22:16:01.936Z,18.19
2022-07-26T22:18:29.931Z,18.21
2022-07-26T22:20:57.811Z,18.24
2022-07-26T22:23:29.021Z,18.19
2022-07-26T22:25:57.343Z,18.12
2022-07-26T22:28:25.681Z,17.98
2022-07-26T22:30:54.539Z,17.97
2022-07-26T22:33:22.560Z,17.96
2022-07-26T22:35:50.826Z,17.89
2022-07-26T22:38:20.630Z,17.92
2022-07-26T22:40:50.396Z,17.87
2022-07-26T22:43:18.309Z,17.83
2022-07-26T22:45:49.003Z,17.72
2022-07-26T22:48:17.248Z,17.75
2022-07-26T22:50:45.303Z,17.72
2022-07-26T22:53:15.536Z,17.58
2022-07-26T22:55:43.273Z,17.43
2022-07-26T22:58:12.694Z,17.53
2022-07-26T23:00:43.197Z,17.60
2022-07-26T23:03:19.701Z,17.54
2022-07-26T23:05:55.838Z,17.34
2022-07-26T23:11:14.428Z,17.40
2022-07-26T23:13:43.684Z,17.47
2022-07-26T23:16:17.265Z,17.44
2022-07-26T23:18:45.563Z,17.39
2022-07-26T23:21:17.329Z,17.23
2022-07-26T23:23:45.163Z,17.27
2022-07-26T23:26:12.937Z,17.31
2022-07-26T23:28:43.262Z,17.31
2022-07-26T23:31:12.456Z,17.28
2022-07-26T23:33:53.411Z,17.27
2022-07-26T23:36:26.889Z,17.22
2022-07-26T23:38:55.093Z,17.24
2022-07-26T23:41:22.990Z,17.17
2022-07-26T23:43:52.890Z,16.97
2022-07-26T23:46:21.327Z,17.03
2022-07-26T23:48:49.395Z,17.04
2022-07-26T23:51:17.543Z,17.10
2022-07-26T23:53:47.399Z,17.11
2022-07-26T23:56:17.959Z,17.05
2022-07-26T23:58:46.328Z,16.93
